createdAt,value
2024-04-25T00:01:00.770Z,83.88
2024-04-25T00:03:50.176Z,83.60
2024-04-25T00:06:18.484Z,84.09
2024-04-25T00:08:46.802Z,84.18
2024-04-25T00:11:18.397Z,86.58
2024-04-25T00:15:02.937Z,86.56
2024-04-25T00:17:31.172Z,85.95
2024-04-25T00:20:00.427Z,83.55
2024-04-25T00:22:28.806Z,83.55
2024-04-25T00:24:57.002Z,84.01
2024-04-25T00:27:25.312Z,84.47
2024-04-25T00:29:55.608Z,84.87
2024-04-25T00:32:24.219Z,85.39
2024-04-25T00:34:52.534Z,85.66
2024-04-25T00:37:20.734Z,88.42
2024-04-25T00:39:49.063Z,88.80
2024-04-25T00:42:22.032Z,87.06
2024-04-25T00:44:50.775Z,86.87
2024-04-25T00:47:21.482Z,84.86
2024-04-25T00:49:52.834Z,85.17
2024-04-25T00:52:21.467Z,86.30
2024-04-25T00:54:50.432Z,86.79
2024-04-25T00:57:20.193Z,87.08
2024-04-25T00:59:51.430Z,86.24
2024-04-25T01:02:20.887Z,85.40
2024-04-25T01:04:51.031Z,85.31
2024-04-25T01:07:20.039Z,85.46
2024-04-25T01:09:48.270Z,85.20
2024-04-25T01:12:18.890Z,85.35
2024-04-25T01:14:47.188Z,86.82
2024-04-25T01:17:15.386Z,88.17
2024-04-25T01:19:44.247Z,87.56
2024-04-25T01:22:13.703Z,87.72
2024-04-25T01:24:41.932Z,85.90
2024-04-25T01:27:10.950Z,86.51
2024-04-25T01:29:40.706Z,86.91
2024-04-25T01:32:09.849Z,84.50
2024-04-25T01:34:38.270Z,86.40
2024-04-25T01:37:06.494Z,87.09
2024-04-25T01:39:35.414Z,87.60
2024-04-25T01:42:03.845Z,87.53
2024-04-25T01:44:32.235Z,86.72
2024-04-25T01:47:00.484Z,86.69
2024-04-25T01:49:28.805Z,86.49
2024-04-25T01:51:57.178Z,86.15
2024-04-25T01:54:25.416Z,86.98
2024-04-25T01:56:54.176Z,86.87
2024-04-25T01:59:22.562Z,87.86
2024-04-25T02:01:50.817Z,87.04
2024-04-25T02:04:19.132Z,85.67
2024-04-25T02:06:47.314Z,85.01
2024-04-25T02:09:15.673Z,84.63
2024-04-25T02:11:44.034Z,85.68
2024-04-25T02:14:12.221Z,86.60
2024-04-25T02:16:40.398Z,86.50
2024-04-25T02:19:08.736Z,87.68
2024-04-25T02:21:55.500Z,88.17
2024-04-25T02:24:42.371Z,87.38
2024-04-25T02:27:10.697Z,86.83
2024-04-25T02:29:39.118Z,86.39
2024-04-25T02:32:07.655Z,85.86
2024-04-25T02:34:36.120Z,85.67
2024-04-25T02:37:04.514Z,85.93
2024-04-25T02:39:32.932Z,86.44
2024-04-25T02:42:01.136Z,86.65
2024-04-25T02:44:29.332Z,87.22
2024-04-25T02:46:57.502Z,87.79
2024-04-25T02:49:28.365Z,87.65
2024-04-25T02:51:56.614Z,88.11
2024-04-25T02:54:24.809Z,89.48
2024-04-25T02:56:53.178Z,89.36
2024-04-25T02:59:21.486Z,89.79
2024-04-25T03:01:49.766Z,90.59
2024-04-25T03:04:18.155Z,88.53
2024-04-25T03:06:46.390Z,88.45
2024-04-25T03:09:14.709Z,88.89
2024-04-25T03:11:43.208Z,89.03
2024-04-25T03:14:11.510Z,89.77
2024-04-25T03:16:39.943Z,88.30
2024-04-25T03:19:08.308Z,88.76
2024-04-25T03:21:36.664Z,89.06
2024-04-25T03:24:05.039Z,88.44
2024-04-25T03:26:33.315Z,87.79
2024-04-25T03:29:01.772Z,88.60
2024-04-25T03:31:30.168Z,89.21
2024-04-25T03:33:58.464Z,89.10
2024-04-25T03:36:26.671Z,89.15
2024-04-25T03:38:55.231Z,88.11
2024-04-25T03:41:23.474Z,89.04
2024-04-25T03:43:51.790Z,88.62
2024-04-25T03:46:19.923Z,88.23
2024-04-25T03:48:48.170Z,91.37
2024-04-25T03:51:17.199Z,94.48
2024-04-25T03:53:45.580Z,90.93
2024-04-25T03:56:13.867Z,86.71
2024-04-25T03:58:42.376Z,87.46
2024-04-25T04:01:10.702Z,86.76
2024-04-25T04:03:39.011Z,86.97
2024-04-25T04:06:07.240Z,84.88
2024-04-25T04:08:37.438Z,83.98
2024-04-25T04:11:06.318Z,82.29
2024-04-25T04:13:36.704Z,82.07
2024-04-25T04:16:09.286Z,82.15
2024-04-25T04:18:38.714Z,83.06
2024-04-25T04:21:09.182Z,83.38
2024-04-25T04:23:38.749Z,83.28
2024-04-25T04:26:07.344Z,84.05
2024-04-25T04:28:35.740Z,84.12
2024-04-25T04:31:04.234Z,84.51
2024-04-25T04:36:04.761Z,83.92
2024-04-25T04:38:33.191Z,83.63
2024-04-25T04:41:01.422Z,83.44
2024-04-25T04:43:29.717Z,83.87
2024-04-25T04:45:59.092Z,84.87
2024-04-25T04:48:34.324Z,85.77
2024-04-25T04:51:03.915Z,85.03
2024-04-25T04:53:32.130Z,83.93
2024-04-25T04:56:00.527Z,84.28
2024-04-25T04:58:28.891Z,84.36
2024-04-25T05:00:57.320Z,85.01
2024-04-25T05:03:25.844Z,84.31
2024-04-25T05:05:54.204Z,84.56
2024-04-25T05:08:23.013Z,84.96
2024-04-25T05:10:51.428Z,86.04
2024-04-25T05:13:20.465Z,86.47
2024-04-25T05:15:48.951Z,86.66
2024-04-25T05:18:17.338Z,85.95
2024-04-25T05:20:45.551Z,85.10
2024-04-25T05:23:14.041Z,84.96
2024-04-25T05:25:42.423Z,84.91
2024-04-25T05:28:10.639Z,85.44
2024-04-25T05:30:39.019Z,85.27
2024-04-25T05:33:08.597Z,84.94
2024-04-25T05:35:37.176Z,85.03
2024-04-25T05:38:05.842Z,85.52
2024-04-25T05:40:34.082Z,86.01
2024-04-25T05:43:02.324Z,85.31
2024-04-25T05:45:30.483Z,85.02
2024-04-25T05:47:59.048Z,83.65
2024-04-25T05:50:27.651Z,83.86
2024-04-25T05:52:55.858Z,84.28
2024-04-25T05:55:24.445Z,83.58
2024-04-25T05:57:52.711Z,83.81
2024-04-25T06:00:21.084Z,83.41
2024-04-25T06:02:50.208Z,83.16
2024-04-25T06:05:18.979Z,83.55
2024-04-25T06:07:47.538Z,83.83
2024-04-25T06:10:15.883Z,81.71
2024-04-25T06:12:44.654Z,80.22
2024-04-25T06:15:13.351Z,79.00
2024-04-25T06:17:42.325Z,78.14
2024-04-25T06:20:13.704Z,77.29
2024-04-25T06:22:42.031Z,77.31
2024-04-25T06:25:10.336Z,77.20
2024-04-25T06:27:38.743Z,76.04
2024-04-25T06:30:07.408Z,76.79
2024-04-25T06:32:38.692Z,76.34
2024-04-25T06:35:07.943Z,76.16
2024-04-25T06:37:36.317Z,76.49
2024-04-25T06:40:04.953Z,77.07
2024-04-25T06:42:33.293Z,78.15
2024-04-25T06:45:01.752Z,78.74
2024-04-25T06:47:30.233Z,78.58
2024-04-25T06:49:58.453Z,78.26
2024-04-25T06:52:26.769Z,77.87
2024-04-25T06:54:55.011Z,78.62
2024-04-25T06:57:23.263Z,78.44
2024-04-25T06:59:54.020Z,79.52
2024-04-25T07:02:25.664Z,79.51
2024-04-25T07:04:56.458Z,80.20
2024-04-25T07:07:26.120Z,79.65
2024-04-25T07:09:54.381Z,79.78
2024-04-25T07:12:22.645Z,80.12
2024-04-25T07:14:50.962Z,80.36
2024-04-25T07:17:19.432Z,80.27
2024-04-25T07:19:47.835Z,80.87
2024-04-25T07:22:16.390Z,80.15
2024-04-25T07:24:44.770Z,81.05
2024-04-25T07:27:13.285Z,81.42
2024-04-25T07:29:46.179Z,81.15
2024-04-25T07:32:18.466Z,82.58
2024-04-25T07:34:47.032Z,81.95
2024-04-25T07:37:15.365Z,81.79
2024-04-25T07:39:46.613Z,82.10
2024-04-25T07:42:15.658Z,81.95
2024-04-25T07:44:44.221Z,82.00
2024-04-25T07:47:12.828Z,81.66
2024-04-25T07:49:41.128Z,81.09
2024-04-25T07:52:09.756Z,82.03
2024-04-25T07:54:38.025Z,81.94
2024-04-25T07:57:06.345Z,82.05
2024-04-25T07:59:34.614Z,81.85
2024-04-25T08:02:02.990Z,80.68
2024-04-25T08:04:31.387Z,80.76
2024-04-25T08:06:59.580Z,79.44
2024-04-25T08:09:28.037Z,78.95
2024-04-25T08:11:56.426Z,78.97
2024-04-25T08:14:24.821Z,79.61
2024-04-25T08:16:54.489Z,79.33
2024-04-25T08:19:22.710Z,79.64
2024-04-25T08:21:50.937Z,80.06
2024-04-25T08:24:20.554Z,80.62
2024-04-25T08:26:48.993Z,81.46
2024-04-25T08:29:18.262Z,82.39
2024-04-25T08:31:46.558Z,83.51
2024-04-25T08:34:14.918Z,83.46
2024-04-25T08:36:43.334Z,83.92
2024-04-25T08:39:11.717Z,84.76
2024-04-25T08:41:44.935Z,82.60
2024-04-25T08:44:15.142Z,82.52
2024-04-25T08:46:46.946Z,82.68
2024-04-25T08:49:19.910Z,81.67
2024-04-25T08:51:51.170Z,80.94
2024-04-25T08:54:22.586Z,81.48
2024-04-25T08:56:50.820Z,82.28
2024-04-25T08:59:19.160Z,82.78
2024-04-25T09:01:50.661Z,83.24
2024-04-25T09:04:21.063Z,82.99
2024-04-25T09:06:49.448Z,83.16
2024-04-25T09:09:17.966Z,83.03
2024-04-25T09:11:56.182Z,82.84
2024-04-25T09:14:25.076Z,83.18
2024-04-25T09:16:53.455Z,83.32
2024-04-25T09:19:26.144Z,83.35
2024-04-25T09:21:55.939Z,84.06
2024-04-25T09:24:24.307Z,84.70
2024-04-25T09:26:52.768Z,84.82
2024-04-25T09:29:22.002Z,84.54
2024-04-25T09:31:53.512Z,84.67
2024-04-25T09:34:22.511Z,85.28
2024-04-25T09:36:51.542Z,85.32
2024-04-25T09:39:20.193Z,85.72
2024-04-25T09:41:49.427Z,85.41
2024-04-25T09:44:18.442Z,86.76
2024-04-25T09:46:59.638Z,86.81
2024-04-25T09:49:34.986Z,86.11
2024-04-25T09:52:33.466Z,86.07
2024-04-25T09:55:05.224Z,86.14
2024-04-25T09:57:34.155Z,87.26
2024-04-25T10:00:02.370Z,88.02
2024-04-25T10:02:33.241Z,88.64
2024-04-25T10:05:02.193Z,89.55
2024-04-25T10:07:32.304Z,88.89
2024-04-25T10:10:01.216Z,87.33
2024-04-25T10:12:29.536Z,86.53
2024-04-25T10:14:59.727Z,85.85
2024-04-25T10:17:30.680Z,85.81
2024-04-25T10:20:04.998Z,85.07
2024-04-25T10:22:37.415Z,84.81
2024-04-25T10:25:15.892Z,85.29
2024-04-25T10:27:46.121Z,84.75
2024-04-25T10:30:15.717Z,85.09
2024-04-25T10:32:44.346Z,85.62
2024-04-25T10:35:16.303Z,84.93
2024-04-25T10:37:47.165Z,85.90
2024-04-25T10:40:17.991Z,85.38
2024-04-25T10:43:01.411Z,84.80
2024-04-25T10:45:33.751Z,83.46
2024-04-25T10:48:02.369Z,84.04
2024-04-25T10:50:31.249Z,83.70
2024-04-25T10:53:01.245Z,83.21
2024-04-25T10:55:29.860Z,83.73
2024-04-25T10:58:01.048Z,83.81
2024-04-25T11:00:29.529Z,83.22
2024-04-25T11:03:01.654Z,83.02
2024-04-25T11:05:30.653Z,82.48
2024-04-25T11:07:59.210Z,81.40
2024-04-25T11:10:28.257Z,80.66
2024-04-25T11:12:59.257Z,80.21
2024-04-25T11:15:27.768Z,80.68
2024-04-25T11:18:04.268Z,80.35
2024-04-25T11:20:38.318Z,79.66
2024-04-25T11:23:15.983Z,78.47
2024-04-25T11:25:48.871Z,78.57
2024-04-25T11:28:20.338Z,79.39
2024-04-25T11:30:50.259Z,79.73
2024-04-25T11:33:23.546Z,79.80
2024-04-25T11:35:52.456Z,80.24
2024-04-25T11:38:21.161Z,80.49
2024-04-25T11:40:50.440Z,81.04
2024-04-25T11:43:20.400Z,81.81
2024-04-25T11:45:49.034Z,82.14
2024-04-25T11:48:21.781Z,82.32
2024-04-25T11:50:50.319Z,82.94
2024-04-25T11:53:18.920Z,82.90
2024-04-25T11:55:47.376Z,83.24
2024-04-25T11:58:15.675Z,83.68
2024-04-25T12:00:49.215Z,83.76
2024-04-25T12:03:17.794Z,83.43
2024-04-25T12:05:47.078Z,85.19
2024-04-25T12:08:15.683Z,84.91
2024-04-25T12:10:54.192Z,84.96
2024-04-25T12:13:26.116Z,84.80
2024-04-25T12:15:54.334Z,85.00
2024-04-25T12:18:25.598Z,86.03
2024-04-25T12:20:55.256Z,86.24
2024-04-25T12:23:26.289Z,85.66
2024-04-25T12:25:55.750Z,85.29
2024-04-25T12:28:24.108Z,86.41
2024-04-25T12:30:52.546Z,86.22
2024-04-25T12:33:20.967Z,87.12
2024-04-25T12:35:49.366Z,87.00
2024-04-25T12:38:18.201Z,87.63
2024-04-25T12:40:46.520Z,87.72
2024-04-25T12:43:15.301Z,88.02
2024-04-25T12:45:48.146Z,88.51
2024-04-25T12:48:16.527Z,88.09
2024-04-25T12:50:44.718Z,89.13
2024-04-25T12:53:13.090Z,89.57
2024-04-25T12:55:41.584Z,89.77
2024-04-25T12:58:09.842Z,89.31
2024-04-25T13:00:38.201Z,90.04
2024-04-25T13:03:18.490Z,90.34
2024-04-25T13:05:47.828Z,89.63
2024-04-25T13:08:36.059Z,89.71
2024-04-25T13:11:04.756Z,89.88
2024-04-25T13:13:34.175Z,89.88
2024-04-25T13:16:02.697Z,90.97
2024-04-25T13:18:32.755Z,92.07
2024-04-25T13:21:03.855Z,91.27
2024-04-25T13:23:32.477Z,91.92
2024-04-25T13:26:00.805Z,92.49
2024-04-25T13:28:33.020Z,93.05
2024-04-25T13:31:04.369Z,93.53
2024-04-25T13:33:36.419Z,93.50
2024-04-25T13:36:05.947Z,93.66
2024-04-25T13:38:34.243Z,94.09
2024-04-25T13:41:02.509Z,94.79
2024-04-25T13:43:30.761Z,94.33
2024-04-25T13:45:59.398Z,94.34
2024-04-25T13:48:27.794Z,93.36
2024-04-25T13:50:56.202Z,92.68
2024-04-25T13:53:26.355Z,91.64
2024-04-25T13:55:57.873Z,92.15
2024-04-25T13:58:26.204Z,90.89
2024-04-25T14:00:54.401Z,91.11
2024-04-25T14:03:23.092Z,91.32
2024-04-25T14:05:51.941Z,90.65
2024-04-25T14:08:20.593Z,90.37
2024-04-25T14:10:51.131Z,91.08
2024-04-25T14:13:20.406Z,91.35
2024-04-25T14:15:48.846Z,91.01
2024-04-25T14:18:17.175Z,90.71
2024-04-25T14:20:45.841Z,90.51
2024-04-25T14:23:14.219Z,90.59
2024-04-25T14:26:01.119Z,90.43
2024-04-25T14:28:44.686Z,90.76
2024-04-25T14:31:14.305Z,90.51
2024-04-25T14:33:45.338Z,90.44
2024-04-25T14:36:13.963Z,89.83
2024-04-25T14:38:43.154Z,90.26
2024-04-25T14:41:12.246Z,91.22
2024-04-25T14:43:42.989Z,89.74
2024-04-25T14:46:11.746Z,89.41
2024-04-25T14:48:40.349Z,89.24
2024-04-25T14:51:08.811Z,89.75
2024-04-25T14:53:37.177Z,90.20
2024-04-25T14:56:06.093Z,89.90
2024-04-25T14:58:34.780Z,89.96
2024-04-25T15:01:03.042Z,90.53
2024-04-25T15:03:31.495Z,91.18
2024-04-25T15:06:00.369Z,91.41
2024-04-25T15:08:28.810Z,91.40
2024-04-25T15:10:57.050Z,91.00
2024-04-25T15:13:25.375Z,91.00
2024-04-25T15:15:58.563Z,90.70
2024-04-25T15:18:27.653Z,91.81
2024-04-25T15:20:56.141Z,91.53
2024-04-25T15:23:24.717Z,90.85
2024-04-25T15:25:53.456Z,92.05
2024-04-25T15:28:21.879Z,92.42
2024-04-25T15:30:50.282Z,91.64
2024-04-25T15:33:21.164Z,91.98
2024-04-25T15:35:49.587Z,91.70
2024-04-25T15:38:17.840Z,92.59
2024-04-25T15:40:46.115Z,92.65
2024-04-25T15:43:14.524Z,91.76
2024-04-25T15:45:42.686Z,92.64
2024-04-25T15:48:13.318Z,93.01
2024-04-25T15:50:41.769Z,93.92
2024-04-25T15:53:10.260Z,93.67
2024-04-25T15:55:38.680Z,93.82
2024-04-25T15:58:07.142Z,93.94
2024-04-25T16:00:35.455Z,93.90
2024-04-25T16:03:04.981Z,95.18
2024-04-25T16:05:33.695Z,95.14
2024-04-25T16:08:01.955Z,94.82
2024-04-25T16:10:30.320Z,95.47
2024-04-25T16:12:58.684Z,95.01
2024-04-25T16:15:27.102Z,94.13
2024-04-25T16:17:55.573Z,93.79
2024-04-25T16:20:24.091Z,95.11
2024-04-25T16:22:52.449Z,94.63
2024-04-25T16:25:20.963Z,94.14
2024-04-25T16:27:49.312Z,94.60
2024-04-25T16:30:17.629Z,93.76
2024-04-25T16:32:46.315Z,93.69
2024-04-25T16:35:14.949Z,93.49
2024-04-25T16:37:43.585Z,93.93
2024-04-25T16:40:12.004Z,93.84
2024-04-25T16:42:40.440Z,94.30
2024-04-25T16:45:08.930Z,94.75
2024-04-25T16:47:37.638Z,94.95
2024-04-25T16:50:06.747Z,94.61
2024-04-25T16:52:35.034Z,93.79
2024-04-25T16:55:03.606Z,92.34
2024-04-25T16:57:32.818Z,93.13
2024-04-25T17:00:01.129Z,93.04
2024-04-25T17:02:29.588Z,92.78
2024-04-25T17:04:57.943Z,92.32
2024-04-25T17:07:26.122Z,91.73
2024-04-25T17:09:54.491Z,92.57
2024-04-25T17:12:22.645Z,93.60
2024-04-25T17:14:50.997Z,92.80
2024-04-25T17:17:19.524Z,92.16
2024-04-25T17:19:47.906Z,93.06
2024-04-25T17:22:16.219Z,92.22
2024-04-25T17:24:44.660Z,92.66
2024-04-25T17:27:13.307Z,93.95
2024-04-25T17:29:42.509Z,93.84
2024-04-25T17:32:13.893Z,93.77
2024-04-25T17:34:44.183Z,94.04
2024-04-25T17:37:13.427Z,94.16
2024-04-25T17:39:41.865Z,94.14
2024-04-25T17:42:10.625Z,93.35
2024-04-25T17:44:40.914Z,93.38
2024-04-25T17:47:12.255Z,93.66
2024-04-25T17:49:40.952Z,93.61
2024-04-25T17:52:09.777Z,92.64
2024-04-25T17:54:38.124Z,93.16
2024-04-25T17:57:06.591Z,92.90
2024-04-25T17:59:35.143Z,93.02
2024-04-25T18:02:05.564Z,93.87
2024-04-25T18:04:34.874Z,93.82
2024-04-25T18:07:08.268Z,92.40
2024-04-25T18:09:36.689Z,92.46
2024-04-25T18:12:05.218Z,91.55
2024-04-25T18:14:33.726Z,90.74
2024-04-25T18:17:02.115Z,91.88
2024-04-25T18:19:30.480Z,91.96
2024-04-25T18:22:00.182Z,92.66
2024-04-25T18:24:30.340Z,92.97
2024-04-25T18:26:58.878Z,93.83
2024-04-25T18:29:27.351Z,94.68
2024-04-25T18:31:55.589Z,94.39
2024-04-25T18:34:23.948Z,94.04
2024-04-25T18:36:52.383Z,94.16
2024-04-25T18:39:20.782Z,94.35
2024-04-25T18:41:49.135Z,94.08
2024-04-25T18:44:17.523Z,94.44
2024-04-25T18:46:45.845Z,94.89
2024-04-25T18:49:14.395Z,94.83
2024-04-25T18:51:44.603Z,95.36
2024-04-25T18:54:13.566Z,95.64
2024-04-25T18:56:42.069Z,95.56
2024-04-25T18:59:10.827Z,95.06
2024-04-25T19:01:39.164Z,94.25
2024-04-25T19:04:07.561Z,94.27
2024-04-25T19:06:36.181Z,95.05
2024-04-25T19:09:04.684Z,94.78
2024-04-25T19:11:33.110Z,95.44
2024-04-25T19:14:04.154Z,94.94
2024-04-25T19:16:32.577Z,95.29
2024-04-25T19:19:01.176Z,95.32
2024-04-25T19:21:43.079Z,95.29
2024-04-25T19:24:13.952Z,94.85
2024-04-25T19:26:43.221Z,94.97
2024-04-25T19:29:18.338Z,94.54
2024-04-25T19:31:48.780Z,94.66
2024-04-25T19:34:24.079Z,94.64
2024-04-25T19:36:53.371Z,94.95
2024-04-25T19:39:21.600Z,95.52
2024-04-25T19:41:50.527Z,95.14
2024-04-25T19:44:19.340Z,96.22
2024-04-25T19:46:48.096Z,96.04
2024-04-25T19:49:19.559Z,95.86
2024-04-25T19:51:48.972Z,95.30
2024-04-25T19:54:20.199Z,95.37
2024-04-25T19:56:48.946Z,94.74
2024-04-25T19:59:18.362Z,96.06
2024-04-25T20:01:50.289Z,95.68
2024-04-25T20:04:19.649Z,95.83
2024-04-25T20:06:51.685Z,95.75
2024-04-25T20:09:20.863Z,95.44
2024-04-25T20:11:49.312Z,94.90
2024-04-25T20:14:17.773Z,95.96
2024-04-25T20:16:46.796Z,95.97
2024-04-25T20:19:33.664Z,96.86
2024-04-25T20:22:02.170Z,96.76
2024-04-25T20:24:30.559Z,96.45
2024-04-25T20:26:59.062Z,96.06
2024-04-25T20:29:29.800Z,96.35
2024-04-25T20:31:58.918Z,96.80
2024-04-25T20:34:27.423Z,96.67
2024-04-25T20:36:55.754Z,96.94
2024-04-25T20:39:24.411Z,96.84
2024-04-25T20:41:53.866Z,97.10
2024-04-25T20:44:26.250Z,96.56
2024-04-25T20:46:54.670Z,97.69
2024-04-25T20:49:23.067Z,97.02
2024-04-25T20:51:51.428Z,96.93
2024-04-25T20:54:19.567Z,96.20
2024-04-25T20:56:47.904Z,96.75
2024-04-25T20:59:16.138Z,96.21
2024-04-25T21:01:45.515Z,96.95
2024-04-25T21:04:13.844Z,96.30
2024-04-25T21:06:44.811Z,95.86
2024-04-25T21:09:14.895Z,96.28
2024-04-25T21:11:43.031Z,97.04
2024-04-25T21:14:11.292Z,96.65
2024-04-25T21:16:44.045Z,97.23
2024-04-25T21:19:12.786Z,97.11
2024-04-25T21:21:45.572Z,97.27
2024-04-25T21:24:14.843Z,96.95
2024-04-25T21:26:49.611Z,97.16
2024-04-25T21:29:18.066Z,97.09
2024-04-25T21:31:46.683Z,97.26
2024-04-25T21:34:16.071Z,97.14
2024-04-25T21:36:44.326Z,96.79
2024-04-25T21:39:13.006Z,96.45
2024-04-25T21:41:42.709Z,96.54
2024-04-25T21:44:12.251Z,96.51
2024-04-25T21:46:43.026Z,96.10
2024-04-25T21:49:13.705Z,95.91
2024-04-25T21:51:46.377Z,96.09
2024-04-25T21:54:15.137Z,96.26
2024-04-25T21:56:44.747Z,95.71
2024-04-25T21:59:13.190Z,96.24
2024-04-25T22:01:54.829Z,96.72
2024-04-25T22:04:23.570Z,96.24
2024-04-25T22:06:51.879Z,97.10
2024-04-25T22:09:20.162Z,97.18
2024-04-25T22:11:48.567Z,96.86
2024-04-25T22:14:16.820Z,96.63
2024-04-25T22:16:45.202Z,96.47
2024-04-25T22:19:13.663Z,96.38
2024-04-25T22:21:48.560Z,96.06
2024-04-25T22:24:18.065Z,96.54
2024-04-25T22:26:47.817Z,96.89
2024-04-25T22:29:16.163Z,97.02
2024-04-25T22:31:44.874Z,97.51
2024-04-25T22:34:13.514Z,97.70
2024-04-25T22:36:41.755Z,97.79
2024-04-25T22:39:10.313Z,97.55
2024-04-25T22:41:41.092Z,97.86
2024-04-25T22:44:09.527Z,97.33
2024-04-25T22:46:38.009Z,97.30
2024-04-25T22:49:06.319Z,97.49
2024-04-25T22:51:34.662Z,97.29
2024-04-25T22:54:03.026Z,97.04
2024-04-25T22:56:31.460Z,97.01
2024-04-25T22:58:59.819Z,97.22
2024-04-25T23:01:31.314Z,97.78
2024-04-25T23:04:00.767Z,97.56
2024-04-25T23:06:29.302Z,98.28
2024-04-25T23:08:59.101Z,97.79
2024-04-25T23:11:27.825Z,97.65
2024-04-25T23:13:56.072Z,97.68
2024-04-25T23:16:24.534Z,98.01
2024-04-25T23:18:53.099Z,97.15
2024-04-25T23:21:21.424Z,97.19
2024-04-25T23:23:49.642Z,97.75
2024-04-25T23:26:17.990Z,97.40
2024-04-25T23:28:46.286Z,97.73
2024-04-25T23:31:19.385Z,98.36
2024-04-25T23:33:48.009Z,98.17
2024-04-25T23:36:16.478Z,98.01
2024-04-25T23:38:45.246Z,97.81
2024-04-25T23:41:13.518Z,97.86
2024-04-25T23:43:41.863Z,97.75
2024-04-25T23:46:10.082Z,98.26
2024-04-25T23:48:40.549Z,98.17
2024-04-25T23:51:09.804Z,97.94
2024-04-25T23:53:38.591Z,97.40
2024-04-25T23:56:09.766Z,98.10
2024-04-25T23:58:38.561Z,98.30
